createdAt,value
2023-07-18T00:01:42.150Z,22.80
2023-07-18T00:04:08.500Z,23.55
2023-07-18T00:06:34.955Z,23.40
2023-07-18T00:09:01.201Z,21.92
2023-07-18T00:11:27.448Z,21.98
2023-07-18T00:13:53.705Z,22.13
2023-07-18T00:16:19.996Z,21.67
2023-07-18T00:18:46.378Z,21.48
2023-07-18T00:21:12.662Z,22.00
2023-07-18T00:23:38.923Z,21.45
2023-07-18T00:26:05.194Z,21.90
2023-07-18T00:28:31.452Z,22.02
2023-07-18T00:30:57.728Z,19.95
2023-07-18T00:33:23.971Z,20.20
2023-07-18T00:35:50.260Z,21.30
2023-07-18T00:38:16.514Z,19.80
2023-07-18T00:40:42.770Z,20.13
2023-07-18T00:43:09.003Z,20.48
2023-07-18T00:45:35.254Z,20.20
2023-07-18T00:48:01.712Z,19.98
2023-07-18T00:50:28.127Z,19.92
2023-07-18T00:52:54.363Z,18.40
2023-07-18T00:55:20.617Z,18.83
2023-07-18T00:57:46.877Z,19.60
2023-07-18T01:00:13.368Z,18.50
2023-07-18T01:02:39.949Z,18.63
2023-07-18T01:05:06.279Z,19.50
2023-07-18T01:07:32.513Z,17.90
2023-07-18T01:09:58.817Z,18.27
2023-07-18T01:12:25.068Z,17.98
2023-07-18T01:14:52.319Z,16.90
2023-07-18T01:17:18.586Z,17.73
2023-07-18T01:19:44.841Z,16.42
2023-07-18T01:22:11.110Z,16.40
2023-07-18T01:24:37.437Z,17.08
2023-07-18T01:27:03.738Z,16.55
2023-07-18T01:29:29.987Z,16.85
2023-07-18T01:31:56.252Z,16.70
2023-07-18T01:34:22.485Z,16.73
2023-07-18T01:36:48.767Z,16.95
2023-07-18T01:39:15.064Z,15.85
2023-07-18T01:41:41.417Z,17.98
2023-07-18T01:44:07.680Z,15.98
2023-07-18T01:46:33.952Z,15.45
2023-07-18T01:49:00.291Z,15.93
2023-07-18T01:51:26.573Z,16.35
2023-07-18T01:53:52.816Z,15.32
2023-07-18T01:56:19.059Z,15.63
2023-07-18T01:58:45.336Z,15.77
2023-07-18T02:01:11.632Z,14.35
2023-07-18T02:03:37.907Z,15.93
2023-07-18T02:06:04.178Z,15.75
2023-07-18T02:08:30.425Z,15.20
2023-07-18T02:10:56.716Z,15.43
2023-07-18T02:13:22.967Z,15.63
2023-07-18T02:15:49.214Z,14.10
2023-07-18T02:18:15.466Z,14.27
2023-07-18T02:20:41.710Z,13.98
2023-07-18T02:23:08.018Z,15.63
2023-07-18T02:25:34.360Z,14.35
2023-07-18T02:28:00.607Z,14.98
2023-07-18T02:30:26.852Z,15.00
2023-07-18T02:32:53.123Z,13.73
2023-07-18T02:35:20.253Z,13.20
2023-07-18T02:37:46.633Z,13.48
2023-07-18T02:40:12.873Z,14.15
2023-07-18T02:42:39.344Z,12.68
2023-07-18T02:45:05.811Z,13.63
2023-07-18T02:47:32.110Z,13.20
2023-07-18T02:49:58.374Z,13.02
2023-07-18T02:52:24.694Z,13.13
2023-07-18T02:54:50.930Z,13.48
2023-07-18T02:57:17.208Z,11.93
2023-07-18T02:59:43.468Z,12.32
2023-07-18T03:02:09.820Z,12.20
2023-07-18T03:04:36.123Z,13.65
2023-07-18T03:07:02.437Z,11.75
2023-07-18T03:09:28.672Z,12.52
2023-07-18T03:11:54.914Z,12.15
2023-07-18T03:14:21.672Z,12.00
2023-07-18T03:16:47.944Z,12.10
2023-07-18T03:19:14.209Z,12.05
2023-07-18T03:21:41.462Z,11.40
2023-07-18T03:24:07.836Z,11.80
2023-07-18T03:26:34.087Z,11.13
2023-07-18T03:29:00.339Z,12.23
2023-07-18T03:31:26.601Z,11.95
2023-07-18T03:33:52.878Z,11.48
2023-07-18T03:36:19.128Z,11.43
2023-07-18T03:38:45.435Z,10.60
2023-07-18T03:41:11.718Z,11.82
2023-07-18T03:43:37.956Z,10.70
2023-07-18T03:46:04.210Z,11.15
2023-07-18T03:48:30.488Z,11.55
2023-07-18T03:50:56.770Z,10.82
2023-07-18T03:53:23.705Z,10.55
2023-07-18T03:55:49.959Z,11.07
2023-07-18T03:58:16.212Z,10.60
2023-07-18T04:00:42.463Z,10.20
2023-07-18T04:03:08.808Z,10.40
2023-07-18T04:05:35.064Z,11.80
2023-07-18T04:08:01.329Z,10.38
2023-07-18T04:10:27.697Z,10.18
2023-07-18T04:12:53.958Z,10.27
2023-07-18T04:15:20.206Z,10.95
2023-07-18T04:17:46.509Z,9.98
2023-07-18T04:20:12.798Z,9.75
2023-07-18T04:22:39.111Z,9.25
2023-07-18T04:25:05.471Z,9.05
2023-07-18T04:27:31.725Z,9.73
2023-07-18T04:29:57.965Z,9.95
2023-07-18T04:32:24.225Z,9.63
2023-07-18T04:34:50.494Z,8.90
2023-07-18T04:37:16.769Z,8.98
2023-07-18T04:39:43.038Z,8.93
2023-07-18T04:42:09.321Z,8.13
2023-07-18T04:44:35.588Z,8.68
2023-07-18T04:47:01.926Z,9.40
2023-07-18T04:49:28.212Z,9.52
2023-07-18T04:51:54.487Z,9.10
2023-07-18T04:54:20.876Z,8.13
2023-07-18T04:56:47.123Z,8.70
2023-07-18T04:59:13.364Z,8.75
2023-07-18T05:01:39.654Z,8.45
2023-07-18T05:04:05.965Z,8.77
2023-07-18T05:06:32.257Z,7.90
2023-07-18T05:08:58.493Z,9.23
2023-07-18T05:11:24.745Z,9.10
2023-07-18T05:13:51.013Z,7.88
2023-07-18T05:16:17.294Z,8.57
2023-07-18T05:18:43.635Z,8.23
2023-07-18T05:21:09.875Z,8.70
2023-07-18T05:23:36.110Z,8.55
2023-07-18T05:26:02.361Z,7.78
2023-07-18T05:28:28.599Z,8.57
2023-07-18T05:30:54.847Z,9.45
2023-07-18T05:33:21.106Z,8.15
2023-07-18T05:35:47.376Z,7.65
2023-07-18T05:38:13.721Z,8.13
2023-07-18T05:40:39.983Z,8.23
2023-07-18T05:43:06.224Z,7.68
2023-07-18T05:45:32.531Z,7.90
2023-07-18T05:47:58.801Z,8.05
2023-07-18T05:50:25.052Z,7.93
2023-07-18T05:52:51.403Z,7.90
2023-07-18T05:55:17.664Z,8.38
2023-07-18T05:57:43.975Z,7.95
2023-07-18T06:00:10.223Z,8.07
2023-07-18T06:02:36.517Z,7.82
2023-07-18T06:05:02.811Z,7.95
2023-07-18T06:07:29.075Z,6.88
2023-07-18T06:09:55.327Z,6.70
2023-07-18T06:12:21.593Z,7.30
2023-07-18T06:14:47.848Z,7.55
2023-07-18T06:17:14.219Z,7.65
2023-07-18T06:19:40.526Z,7.78
2023-07-18T06:22:07.006Z,7.38
2023-07-18T06:24:33.285Z,6.63
2023-07-18T06:26:59.580Z,6.72
2023-07-18T06:29:25.834Z,6.88
2023-07-18T06:31:52.080Z,7.35
2023-07-18T06:34:18.637Z,7.72
2023-07-18T06:36:45.220Z,7.20
2023-07-18T06:39:11.576Z,6.88
2023-07-18T06:41:37.829Z,8.07
2023-07-18T06:44:04.079Z,7.50
2023-07-18T06:46:30.368Z,7.63
2023-07-18T06:48:56.668Z,6.88
2023-07-18T06:51:22.930Z,7.95
2023-07-18T06:53:49.216Z,6.95
2023-07-18T06:56:15.509Z,6.70
2023-07-18T06:58:41.781Z,7.10
2023-07-18T07:01:08.126Z,7.50
2023-07-18T07:03:34.499Z,6.95
2023-07-18T07:06:00.939Z,7.38
2023-07-18T07:08:27.268Z,6.72
2023-07-18T07:10:53.773Z,7.40
2023-07-18T07:13:20.048Z,7.07
2023-07-18T07:15:46.290Z,7.82
2023-07-18T07:18:12.586Z,15.10
2023-07-18T07:20:38.827Z,8.95
2023-07-18T07:23:05.165Z,8.25
2023-07-18T07:25:31.465Z,7.65
2023-07-18T07:28:02.554Z,7.57
2023-07-18T07:30:28.832Z,7.13
2023-07-18T07:32:55.157Z,7.18
2023-07-18T07:35:21.450Z,7.53
2023-07-18T07:37:47.711Z,8.43
2023-07-18T07:40:14.136Z,7.35
2023-07-18T07:42:40.444Z,7.80
2023-07-18T07:45:06.734Z,7.95
2023-07-18T07:47:33.002Z,7.40
2023-07-18T07:49:59.291Z,7.45
2023-07-18T07:52:25.523Z,9.38
2023-07-18T07:54:51.798Z,7.10
2023-07-18T07:57:18.102Z,7.18
2023-07-18T07:59:44.381Z,6.28
2023-07-18T08:02:10.750Z,7.32
2023-07-18T08:04:37.182Z,8.43
2023-07-18T08:07:03.543Z,10.65
2023-07-18T08:09:29.818Z,8.75
2023-07-18T08:11:56.095Z,7.38
2023-07-18T08:14:22.375Z,7.75
2023-07-18T08:16:48.651Z,8.60
2023-07-18T08:19:14.925Z,7.47
2023-07-18T08:21:41.229Z,7.50
2023-07-18T08:24:07.554Z,6.95
2023-07-18T08:26:33.907Z,7.32
2023-07-18T08:29:00.197Z,8.38
2023-07-18T08:31:26.589Z,7.25
2023-07-18T08:33:52.962Z,7.05
2023-07-18T08:36:19.207Z,6.70
2023-07-18T08:38:45.800Z,8.45
2023-07-18T08:41:12.771Z,6.85
2023-07-18T08:43:39.071Z,7.40
2023-07-18T08:46:05.379Z,6.32
2023-07-18T08:48:31.644Z,6.22
2023-07-18T08:50:57.999Z,7.05
2023-07-18T08:53:24.229Z,6.43
2023-07-18T08:55:50.624Z,6.65
2023-07-18T08:58:16.914Z,6.32
2023-07-18T09:00:43.193Z,6.68
2023-07-18T09:03:09.458Z,7.10
2023-07-18T09:05:35.726Z,6.28
2023-07-18T09:08:01.976Z,6.63
2023-07-18T09:10:28.228Z,6.28
2023-07-18T09:12:54.558Z,7.00
2023-07-18T09:15:20.830Z,7.15
2023-07-18T09:17:47.094Z,6.72
2023-07-18T09:20:13.439Z,6.57
2023-07-18T09:22:39.746Z,6.80
2023-07-18T09:25:06.104Z,6.03
2023-07-18T09:27:32.366Z,6.88
2023-07-18T09:29:58.616Z,6.20
2023-07-18T09:32:24.920Z,6.45
2023-07-18T09:34:51.224Z,6.80
2023-07-18T09:37:17.480Z,5.85
2023-07-18T09:39:43.766Z,6.93
2023-07-18T09:42:12.402Z,6.57
2023-07-18T09:44:39.917Z,6.63
2023-07-18T09:47:06.199Z,5.80
2023-07-18T09:49:34.162Z,6.03
2023-07-18T09:52:00.544Z,6.82
2023-07-18T09:54:26.793Z,6.20
2023-07-18T09:56:53.055Z,7.90
2023-07-18T09:59:19.337Z,6.53
2023-07-18T10:01:45.605Z,7.53
2023-07-18T10:04:11.955Z,9.30
2023-07-18T10:06:38.222Z,6.47
2023-07-18T10:09:04.498Z,6.85
2023-07-18T10:11:30.757Z,6.38
2023-07-18T10:13:56.997Z,7.15
2023-07-18T10:16:23.365Z,9.20
2023-07-18T10:18:49.699Z,7.47
2023-07-18T10:21:15.953Z,8.30
2023-07-18T10:23:42.181Z,6.57
2023-07-18T10:26:10.454Z,6.38
2023-07-18T10:28:36.940Z,7.55
2023-07-18T10:31:03.238Z,13.50
2023-07-18T10:33:29.526Z,6.53
2023-07-18T10:35:55.786Z,5.57
2023-07-18T10:38:22.054Z,7.57
2023-07-18T10:40:48.333Z,7.20
2023-07-18T10:43:14.600Z,7.22
2023-07-18T10:45:40.919Z,7.38
2023-07-18T10:48:07.303Z,5.93
2023-07-18T10:50:33.567Z,6.05
2023-07-18T10:52:59.820Z,6.22
2023-07-18T10:55:26.102Z,6.55
2023-07-18T10:57:52.357Z,6.18
2023-07-18T11:00:18.596Z,6.18
2023-07-18T11:02:44.923Z,6.53
2023-07-18T11:05:11.192Z,6.53
2023-07-18T11:07:37.455Z,6.85
2023-07-18T11:10:03.773Z,5.90
2023-07-18T11:12:30.065Z,7.35
2023-07-18T11:14:57.125Z,7.82
2023-07-18T11:17:25.110Z,7.18
2023-07-18T11:19:51.368Z,5.72
2023-07-18T11:22:17.670Z,6.78
2023-07-18T11:24:44.018Z,7.70
2023-07-18T11:27:10.289Z,7.28
2023-07-18T11:29:36.557Z,6.28
2023-07-18T11:32:02.858Z,7.20
2023-07-18T11:34:29.231Z,7.78
2023-07-18T11:36:55.583Z,6.65
2023-07-18T11:39:22.122Z,6.80
2023-07-18T11:41:48.444Z,6.40
2023-07-18T11:44:14.730Z,7.60
2023-07-18T11:46:40.994Z,6.35
2023-07-18T11:49:07.338Z,6.07
2023-07-18T11:51:33.598Z,7.03
2023-07-18T11:53:59.851Z,5.70
2023-07-18T11:56:26.126Z,6.95
2023-07-18T11:58:52.382Z,5.38
2023-07-18T12:01:19.153Z,7.35
2023-07-18T12:03:45.714Z,7.47
2023-07-18T12:06:11.987Z,7.07
2023-07-18T12:08:38.250Z,7.18
2023-07-18T12:11:09.794Z,7.43
2023-07-18T12:13:36.324Z,6.35
2023-07-18T12:16:02.553Z,6.35
2023-07-18T12:18:28.957Z,6.38
2023-07-18T12:20:55.243Z,6.03
2023-07-18T12:23:21.494Z,6.93
2023-07-18T12:25:47.779Z,6.95
2023-07-18T12:28:14.121Z,6.25
2023-07-18T12:30:40.408Z,7.05
2023-07-18T12:33:08.770Z,5.20
2023-07-18T12:35:36.635Z,6.07
2023-07-18T12:38:02.893Z,6.68
2023-07-18T12:40:29.199Z,7.22
2023-07-18T12:42:55.505Z,6.90
2023-07-18T12:45:23.473Z,6.20
2023-07-18T12:47:51.738Z,5.95
2023-07-18T12:50:18.058Z,6.68
2023-07-18T12:52:44.289Z,5.95
2023-07-18T12:55:10.543Z,6.30
2023-07-18T12:57:36.807Z,5.82
2023-07-18T13:00:03.052Z,6.55
2023-07-18T13:02:29.345Z,5.88
2023-07-18T13:04:55.664Z,6.22
2023-07-18T13:07:21.949Z,7.05
2023-07-18T13:09:48.201Z,4.80
2023-07-18T13:12:14.576Z,4.85
2023-07-18T13:14:40.847Z,5.80
2023-07-18T13:17:07.105Z,6.43
2023-07-18T13:19:33.359Z,6.10
2023-07-18T13:21:59.625Z,5.65
2023-07-18T13:24:25.851Z,5.82
2023-07-18T13:26:52.129Z,6.32
2023-07-18T13:29:18.375Z,6.68
2023-07-18T13:31:44.691Z,5.75
2023-07-18T13:34:12.625Z,6.32
2023-07-18T13:36:40.431Z,8.02
2023-07-18T13:39:06.669Z,7.97
2023-07-18T13:41:33.072Z,7.13
2023-07-18T13:43:59.409Z,7.65
2023-07-18T13:46:26.219Z,6.78
2023-07-18T13:48:52.760Z,8.07
2023-07-18T13:51:19.011Z,7.63
2023-07-18T13:53:45.332Z,7.22
2023-07-18T13:56:11.627Z,6.90
2023-07-18T13:58:37.882Z,6.43
2023-07-18T14:01:04.297Z,5.30
2023-07-18T14:03:35.856Z,7.60
2023-07-18T14:06:03.113Z,9.00
2023-07-18T14:08:29.411Z,6.55
2023-07-18T14:10:55.689Z,8.48
2023-07-18T14:13:21.989Z,8.82
2023-07-18T14:15:48.500Z,8.85
2023-07-18T14:18:14.901Z,10.40
2023-07-18T14:20:41.210Z,14.75
2023-07-18T14:23:07.496Z,12.77
2023-07-18T14:25:33.812Z,18.33
2023-07-18T14:28:00.178Z,17.95
2023-07-18T14:30:26.425Z,16.05
2023-07-18T14:32:52.730Z,21.50
2023-07-18T14:35:19.024Z,20.75
2023-07-18T14:37:45.285Z,23.85
2023-07-18T14:40:11.611Z,21.88
2023-07-18T14:42:37.918Z,22.55
2023-07-18T14:45:04.173Z,18.45
2023-07-18T14:47:30.627Z,21.23
2023-07-18T14:49:56.881Z,19.40
2023-07-18T14:52:23.155Z,22.30
2023-07-18T14:54:49.485Z,21.63
2023-07-18T14:57:15.807Z,20.58
2023-07-18T14:59:42.062Z,22.50
2023-07-18T15:02:08.311Z,21.52
2023-07-18T15:04:34.674Z,18.90
2023-07-18T15:07:00.923Z,21.13
2023-07-18T15:09:27.176Z,18.40
2023-07-18T15:11:53.452Z,17.75
2023-07-18T15:14:19.720Z,17.65
2023-07-18T15:16:47.042Z,17.10
2023-07-18T15:19:13.305Z,19.05
2023-07-18T15:21:39.597Z,17.40
2023-07-18T15:24:05.863Z,18.58
2023-07-18T15:26:32.100Z,17.95
2023-07-18T15:28:58.361Z,16.70
2023-07-18T15:31:24.795Z,19.27
2023-07-18T15:33:51.085Z,17.98
2023-07-18T15:36:17.602Z,18.15
2023-07-18T15:38:46.356Z,18.45
2023-07-18T15:41:12.812Z,18.42
2023-07-18T15:43:39.100Z,17.42
2023-07-18T15:46:05.441Z,19.38
2023-07-18T15:48:31.758Z,17.17
2023-07-18T15:50:58.003Z,17.35
2023-07-18T15:53:24.393Z,17.45
2023-07-18T15:55:52.509Z,18.67
2023-07-18T15:58:19.132Z,17.88
2023-07-18T16:00:45.399Z,15.63
2023-07-18T16:03:11.714Z,16.60
2023-07-18T16:05:38.074Z,17.17
2023-07-18T16:08:04.323Z,15.00
2023-07-18T16:10:30.606Z,15.38
2023-07-18T16:12:56.890Z,14.18
2023-07-18T16:15:23.691Z,15.45
2023-07-18T16:17:50.027Z,15.75
2023-07-18T16:20:16.320Z,14.77
2023-07-18T16:22:42.582Z,18.73
2023-07-18T16:25:09.046Z,15.13
2023-07-18T16:27:35.475Z,14.82
2023-07-18T16:30:01.732Z,15.70
2023-07-18T16:32:28.922Z,14.25
2023-07-18T16:34:55.961Z,14.90
2023-07-18T16:37:22.187Z,14.07
2023-07-18T16:39:48.457Z,14.35
2023-07-18T16:44:48.496Z,16.95
2023-07-18T16:47:14.943Z,14.32
2023-07-18T16:49:41.353Z,12.80
2023-07-18T16:52:07.600Z,13.55
2023-07-18T16:54:34.012Z,11.65
2023-07-18T16:57:00.261Z,7.50
2023-07-18T16:59:26.536Z,8.55
2023-07-18T17:01:52.783Z,6.80
2023-07-18T17:04:19.064Z,5.68
2023-07-18T17:06:45.357Z,9.00
2023-07-18T17:09:11.631Z,7.68
2023-07-18T17:11:37.883Z,22.90
2023-07-18T17:14:04.122Z,24.00
2023-07-18T17:16:30.522Z,20.85
2023-07-18T17:18:56.809Z,17.13
2023-07-18T17:21:23.064Z,25.75
2023-07-18T17:23:49.414Z,12.93
2023-07-18T17:26:15.671Z,12.38
2023-07-18T17:28:41.953Z,12.65
2023-07-18T17:31:08.299Z,9.35
2023-07-18T17:33:34.575Z,11.73
2023-07-18T17:36:00.832Z,84.05
2023-07-18T17:38:27.227Z,39.75
2023-07-18T17:40:53.505Z,27.60
2023-07-18T17:43:19.810Z,33.80
2023-07-18T17:45:46.103Z,52.25
2023-07-18T17:48:12.405Z,70.07
2023-07-18T17:50:38.684Z,88.70
2023-07-18T17:53:04.992Z,67.88
2023-07-18T17:55:31.251Z,34.40
2023-07-18T17:57:57.535Z,27.48
2023-07-18T18:00:23.782Z,57.88
2023-07-18T18:02:50.211Z,39.67
2023-07-18T18:05:16.606Z,54.22
2023-07-18T18:07:42.869Z,23.17
2023-07-18T18:10:09.170Z,29.70
2023-07-18T18:12:35.483Z,21.67
2023-07-18T18:15:01.776Z,14.23
2023-07-18T18:17:28.437Z,10.63
2023-07-18T18:19:54.748Z,25.42
2023-07-18T18:22:21.028Z,30.70
2023-07-18T18:24:47.273Z,16.80
2023-07-18T18:27:13.534Z,13.60
2023-07-18T18:29:39.781Z,19.52
2023-07-18T18:32:06.039Z,15.02
2023-07-18T18:34:35.450Z,10.82
2023-07-18T18:37:01.703Z,15.10
2023-07-18T18:39:30.391Z,9.88
2023-07-18T18:41:57.015Z,56.47
2023-07-18T18:44:23.355Z,89.05
2023-07-18T18:46:50.792Z,82.43
2023-07-18T18:49:25.959Z,26.25
2023-07-18T18:51:53.179Z,27.60
2023-07-18T18:54:19.461Z,8.02
2023-07-18T18:56:45.726Z,7.38
2023-07-18T18:59:12.037Z,7.32
2023-07-18T19:01:38.590Z,7.68
2023-07-18T19:04:04.921Z,8.82
2023-07-18T19:06:31.189Z,12.45
2023-07-18T19:08:57.455Z,10.95
2023-07-18T19:11:23.915Z,8.63
2023-07-18T19:13:50.347Z,7.05
2023-07-18T19:16:25.074Z,5.85
2023-07-18T19:18:59.445Z,5.82
2023-07-18T19:21:25.698Z,6.80
2023-07-18T19:23:51.959Z,10.02
2023-07-18T19:26:18.227Z,19.42
2023-07-18T19:28:44.527Z,19.50
2023-07-18T19:31:10.779Z,11.90
2023-07-18T19:33:37.078Z,15.85
2023-07-18T19:36:03.330Z,8.68
2023-07-18T19:38:29.572Z,10.55
2023-07-18T19:40:55.827Z,13.52
2023-07-18T19:43:22.081Z,9.43
2023-07-18T19:45:48.388Z,7.53
2023-07-18T19:48:14.666Z,5.10
2023-07-18T19:50:40.935Z,9.45
2023-07-18T19:53:07.166Z,11.73
2023-07-18T19:55:33.404Z,7.38
2023-07-18T19:57:59.632Z,8.15
2023-07-18T20:00:29.414Z,7.47
2023-07-18T20:02:55.897Z,7.25
2023-07-18T20:05:22.405Z,6.78
2023-07-18T20:07:48.667Z,7.78
2023-07-18T20:10:14.965Z,7.97
2023-07-18T20:12:41.213Z,8.75
2023-07-18T20:15:07.598Z,11.23
2023-07-18T20:17:33.959Z,13.13
2023-07-18T20:20:00.264Z,12.88
2023-07-18T20:22:26.596Z,18.65
2023-07-18T20:24:52.872Z,16.33
2023-07-18T20:27:19.163Z,18.20
2023-07-18T20:29:48.159Z,21.15
2023-07-18T20:32:14.440Z,46.03
2023-07-18T20:34:40.722Z,81.47
2023-07-18T20:37:07.045Z,72.22
2023-07-18T20:39:33.305Z,75.30
2023-07-18T20:41:59.546Z,61.88
2023-07-18T20:44:25.863Z,37.97
2023-07-18T20:46:52.103Z,36.50
2023-07-18T20:49:18.358Z,30.75
2023-07-18T20:51:44.607Z,27.45
2023-07-18T20:54:10.846Z,27.80
2023-07-18T20:56:37.116Z,39.20
2023-07-18T20:59:03.386Z,33.92
2023-07-18T21:01:29.678Z,25.35
2023-07-18T21:03:55.954Z,26.10
2023-07-18T21:06:22.235Z,23.50
2023-07-18T21:08:48.536Z,29.45
2023-07-18T21:11:14.802Z,24.30
2023-07-18T21:13:41.042Z,25.55
2023-07-18T21:16:07.303Z,79.82
2023-07-18T21:18:33.595Z,40.22
2023-07-18T21:20:59.837Z,33.67
2023-07-18T21:23:26.108Z,38.75
2023-07-18T21:25:52.364Z,34.95
2023-07-18T21:28:18.616Z,35.90
2023-07-18T21:30:44.865Z,53.35
2023-07-18T21:33:11.130Z,49.30
2023-07-18T21:35:37.385Z,50.67
2023-07-18T21:38:03.646Z,59.67
2023-07-18T21:40:29.929Z,57.15
2023-07-18T21:42:56.182Z,60.67
2023-07-18T21:45:22.473Z,66.63
2023-07-18T21:47:48.806Z,58.38
2023-07-18T21:50:15.084Z,64.03
2023-07-18T21:52:41.342Z,65.32
2023-07-18T21:55:07.616Z,64.68
2023-07-18T21:57:33.915Z,65.55
2023-07-18T22:00:00.328Z,71.63
2023-07-18T22:02:26.660Z,75.40
2023-07-18T22:04:52.968Z,64.80
2023-07-18T22:07:19.229Z,65.85
2023-07-18T22:09:45.471Z,63.97
2023-07-18T22:12:11.714Z,64.15
2023-07-18T22:14:37.989Z,61.15
2023-07-18T22:17:04.352Z,61.97
2023-07-18T22:19:30.716Z,60.13
2023-07-18T22:21:56.955Z,60.78
2023-07-18T22:24:23.204Z,56.15
2023-07-18T22:26:49.460Z,59.55
2023-07-18T22:29:15.715Z,59.60
2023-07-18T22:31:42.177Z,61.25
2023-07-18T22:34:08.462Z,56.17
2023-07-18T22:36:34.712Z,57.53
2023-07-18T22:39:00.977Z,54.45
2023-07-18T22:41:27.219Z,54.05
2023-07-18T22:43:53.471Z,52.65
2023-07-18T22:46:19.801Z,53.15
2023-07-18T22:48:46.081Z,54.08
2023-07-18T22:51:12.332Z,54.35
2023-07-18T22:53:38.589Z,52.63
2023-07-18T22:56:04.848Z,52.15
2023-07-18T22:58:31.117Z,52.20
2023-07-18T23:00:57.414Z,51.63
2023-07-18T23:03:23.748Z,47.72
2023-07-18T23:05:50.092Z,48.92
2023-07-18T23:08:16.354Z,48.03
2023-07-18T23:10:43.081Z,49.00
2023-07-18T23:13:09.355Z,49.58
2023-07-18T23:15:35.642Z,48.33
2023-07-18T23:18:01.956Z,45.38
2023-07-18T23:20:28.308Z,47.17
2023-07-18T23:22:54.619Z,47.42
2023-07-18T23:25:21.012Z,44.92
2023-07-18T23:27:47.257Z,44.50
2023-07-18T23:30:13.555Z,43.63
2023-07-18T23:32:40.007Z,42.22
2023-07-18T23:35:06.323Z,40.42
2023-07-18T23:37:32.615Z,42.17
2023-07-18T23:39:58.890Z,38.40
2023-07-18T23:42:25.169Z,41.90
2023-07-18T23:44:51.435Z,42.35
2023-07-18T23:47:17.696Z,38.15
2023-07-18T23:49:43.930Z,40.17
2023-07-18T23:52:10.171Z,38.55
2023-07-18T23:54:36.452Z,38.13
2023-07-18T23:57:02.898Z,35.17
2023-07-18T23:59:29.130Z,37.65
